»·PEaware :: ACL925 KBUR-KIFP

ACL925 :: KBUR-KIFP

FLIGHT INFORMATION

Flight Status: Arrived
Operator: Unknown
More flights by this operator :: More flights under this callsign
Pilot: Tyler A. (13885)
Aircraft: AIRBUS A318
(A318)
More flights by this aircraft type
Origin: KBUR Bob Hope-Burbank
United States
Destination: KIFP Laughlin/Bullhead Intl
United States
More flights between these airports :: More routes between these airports
Route: SLAPP1 HEC ETINE
File this flight plan on PilotEdge
Remarks: Callsign -- AirCal
Altitude:
(Current/Filed)
27,000ft
Speed:
(Current/Filed)
420kts
Departed: 03-Apr-17 10:14 PM
Arrived: 03-Apr-17 10:59 PM
Distance/Time
Traveled:
196nm/0:45
Distance/Time
To Go:
Arrived

Flight Plot

Page will automatically refresh every two minutes.

Flight plan parsing failed; only flown route is shown


Map Options




Map Legend


Flown Route
Filed Route
Departure Airport
Arrival Airport
Navaid (VOR, NDB)
Fix

Horizontal Profiles

Position Reports

Time Latitude Longitude Heading Altitude Ground
Speed
03-Apr-17 22:02 34.196743 -118.351761 181 735ft 0kts
03-Apr-17 22:03 34.196743 -118.351761 181 735ft 0kts
03-Apr-17 22:04 34.196743 -118.351761 181 735ft 0kts
03-Apr-17 22:05 34.196743 -118.351761 181 735ft 0kts
03-Apr-17 22:06 34.196743 -118.351761 181 735ft 0kts
03-Apr-17 22:07 34.196809 -118.351760 183 735ft 2kts
03-Apr-17 22:08 34.197189 -118.351340 270 735ft 0kts
03-Apr-17 22:09 34.197189 -118.351343 270 735ft 0kts
03-Apr-17 22:10 34.197192 -118.351594 270 735ft 7kts
03-Apr-17 22:11 34.197814 -118.354987 312 735ft 11kts
03-Apr-17 22:12 34.202406 -118.356391 346 735ft 25kts
03-Apr-17 22:13 34.209078 -118.358242 345 735ft 23kts
03-Apr-17 22:14 34.211834 -118.360393 165 735ft 9kts
03-Apr-17 22:15 34.194822 -118.356335 181 1160ft 138kts
03-Apr-17 22:16 34.160016 -118.387143 222 3223ft 190kts
03-Apr-17 22:17 34.170498 -118.451112 334 5676ft 256kts
03-Apr-17 22:18 34.242371 -118.438908 14 9611ft 275kts
03-Apr-17 22:19 34.323118 -118.411404 13 12422ft 324kts
03-Apr-17 22:20 34.408904 -118.367388 22 15643ft 348kts
03-Apr-17 22:21 34.492778 -118.301678 33 18428ft 371kts
03-Apr-17 22:22 34.574392 -118.221019 33 20982ft 385kts
03-Apr-17 22:23 34.655321 -118.133056 49 23486ft 400kts
03-Apr-17 22:24 34.687510 -117.998509 71 25278ft 432kts
03-Apr-17 22:25 34.700109 -117.850843 79 26847ft 448kts
03-Apr-17 22:26 34.707761 -117.700274 80 25872ft 437kts
03-Apr-17 22:27 34.713274 -117.552186 80 25142ft 437kts
03-Apr-17 22:28 34.722844 -117.405643 77 24165ft 431kts
03-Apr-17 22:29 34.734868 -117.261615 78 23198ft 426kts
03-Apr-17 22:30 34.746526 -117.119401 78 22245ft 421kts
03-Apr-17 22:31 34.757880 -116.978900 78 21293ft 416kts
03-Apr-17 22:32 34.768920 -116.840033 79 20347ft 411kts
03-Apr-17 22:33 34.779656 -116.702844 79 19424ft 405kts
03-Apr-17 22:34 34.790149 -116.566565 79 19005ft 403kts
03-Apr-17 22:35 34.802330 -116.431272 73 19015ft 400kts
03-Apr-17 22:36 34.824099 -116.298739 72 19024ft 400kts
03-Apr-17 22:37 34.845918 -116.166125 72 19030ft 399kts
03-Apr-17 22:38 34.867431 -116.034497 73 17136ft 386kts
03-Apr-17 22:39 34.887832 -115.907806 72 15578ft 376kts
03-Apr-17 22:40 34.907671 -115.784646 72 14256ft 367kts
03-Apr-17 22:41 34.926861 -115.664425 72 13057ft 357kts
03-Apr-17 22:42 34.945472 -115.546873 72 11857ft 350kts
03-Apr-17 22:43 34.963399 -115.432847 73 10796ft 320kts
03-Apr-17 22:44 34.978926 -115.332564 73 10274ft 294kts
03-Apr-17 22:45 34.994065 -115.235265 73 9616ft 289kts
03-Apr-17 22:46 35.008847 -115.139597 74 8969ft 285kts
03-Apr-17 22:47 35.023284 -115.045205 74 8293ft 282kts
03-Apr-17 22:48 35.015964 -114.952225 116 7511ft 293kts
03-Apr-17 22:49 34.972882 -114.868232 118 6696ft 290kts
03-Apr-17 22:50 34.930459 -114.785798 118 5910ft 285kts
03-Apr-17 22:51 34.888242 -114.705437 119 5010ft 279kts
03-Apr-17 22:52 34.878539 -114.623363 49 4314ft 256kts
03-Apr-17 22:53 34.919897 -114.556438 34 4187ft 213kts
03-Apr-17 22:54 34.971998 -114.546939 358 3839ft 190kts
03-Apr-17 22:55 35.020602 -114.549627 357 3012ft 155kts
03-Apr-17 22:56 35.057866 -114.552197 357 2327ft 126kts
03-Apr-17 22:57 35.092513 -114.554811 357 1722ft 123kts
03-Apr-17 22:58 35.126593 -114.557380 358 1085ft 122kts
03-Apr-17 22:59 35.158213 -114.559654 357 655ft 65kts
03-Apr-17 23:00 35.167306 -114.560247 9 655ft 8kts
03-Apr-17 23:01 35.166035 -114.559003 175 655ft 13kts
03-Apr-17 23:02 35.164582 -114.557229 121 655ft 7kts
03-Apr-17 23:03 35.164555 -114.556572 81 655ft 0kts
03-Apr-17 23:04 35.164555 -114.556572 81 655ft 0kts

Navigation Log

Ident Type
Flight plan parsing failed, navigation log unavailable